Time;durP1;ratioP1;P1;durP2;ratioP2;P2;SDS_P1;SDS_P2;PMS_P1;PMS_P2;Temp;Humidity;BMP_temperature;BMP_pressure;BME280_temperature;BME280_humidity;BME280_pressure;Samples;Min_cycle;Max_cycle;Signal;HPM_P1;HPM_P2
2022/11/26 00:01:44;;;;;;;83.75;9.93;;;6.70;99.90;;;;;;5013770;28;20269;-88
2022/11/26 00:04:28;;;;;;;78.43;11.43;;;6.70;99.90;;;;;;5012809;28;20169;-88
2022/11/26 00:06:56;;;;;;;79.50;11.63;;;6.70;99.90;;;;;;5012784;28;20220;-88
2022/11/26 00:10:21;;;;;;;73.57;11.05;;;6.60;99.90;;;;;;5012921;28;20162;-88
2022/11/26 00:12:53;;;;;;;76.20;10.82;;;6.60;99.90;;;;;;4966452;28;20232;-88
2022/11/26 00:15:22;;;;;;;74.50;10.20;;;6.50;99.90;;;;;;5014107;28;20161;-88
2022/11/26 00:18:02;;;;;;;80.45;11.50;;;6.50;99.90;;;;;;5012307;28;20166;-88
2022/11/26 00:20:40;;;;;;;;;;;;;;;;;;;;;
2022/11/26 00:23:12;;;;;;;73.90;10.02;;;6.30;99.90;;;;;;5033376;28;20184;-88
2022/11/26 00:25:51;;;;;;;75.72;11.95;;;6.30;99.90;;;;;;5032167;28;20161;-88
2022/11/26 00:31:49;;;;;;;74.18;9.80;;;6.20;99.90;;;;;;5032774;28;20183;-88
2022/11/26 00:34:33;;;;;;;71.70;10.38;;;6.20;99.90;;;;;;5032222;28;20173;-88
2022/11/26 00:37:16;;;;;;;79.90;11.57;;;6.20;99.90;;;;;;5032878;28;20165;-88
2022/11/26 00:39:54;;;;;;;84.03;12.55;;;6.30;99.90;;;;;;5033475;28;20242;-88
2022/11/26 00:43:02;;;;;;;81.50;12.00;;;6.30;99.90;;;;;;5032295;28;20189;-88
2022/11/26 00:45:43;;;;;;;;;;;;;;;;;;;;;
2022/11/26 00:48:14;;;;;;;78.28;12.70;;;6.30;99.90;;;;;;5031293;28;20539;-88
2022/11/26 00:51:06;;;;;;;78.03;12.05;;;6.40;99.90;;;;;;5030368;22;20633;-88
2022/11/26 00:53:34;;;;;;;84.38;13.63;;;6.40;99.90;;;;;;5032958;28;20643;-88
2022/11/26 00:56:30;;;;;;;85.68;13.88;;;6.50;99.90;;;;;;5032588;28;20256;-88
2022/11/26 00:59:01;;;;;;;79.07;13.82;;;6.50;99.90;;;;;;5031292;28;20177;-88
2022/11/26 01:02:14;;;;;;;80.15;13.50;;;6.40;99.90;;;;;;5033066;28;20196;-88
2022/11/26 01:04:46;;;;;;;83.65;13.13;;;6.50;99.90;;;;;;5031883;28;20658;-88
2022/11/26 01:07:17;;;;;;;80.78;15.57;;;6.50;99.90;;;;;;5031515;28;20169;-89
2022/11/26 01:10:00;;;;;;;90.32;16.85;;;6.60;99.90;;;;;;5033023;28;20268;-88
2022/11/26 01:12:40;;;;;;;85.88;14.45;;;6.70;99.90;;;;;;5031826;28;20180;-88
2022/11/26 01:15:09;;;;;;;84.57;15.30;;;6.70;99.90;;;;;;5033223;28;20145;-88
2022/11/26 01:17:38;;;;;;;81.47;15.93;;;6.70;99.90;;;;;;5031733;28;20220;-88
2022/11/26 01:20:29;;;;;;;94.15;15.45;;;6.80;99.90;;;;;;5032904;28;20185;-88
2022/11/26 01:23:03;;;;;;;85.05;17.48;;;6.80;99.90;;;;;;5013576;28;20343;-88
2022/11/26 01:25:55;;;;;;;76.18;13.15;;;6.80;99.90;;;;;;5032635;28;20226;-89
2022/11/26 01:28:56;;;;;;;88.15;15.43;;;6.70;99.90;;;;;;5032040;28;20633;-89
2022/11/26 01:32:15;;;;;;;82.57;14.57;;;6.80;99.90;;;;;;5028559;28;20244;-89
2022/11/26 01:35:28;;;;;;;81.82;14.63;;;6.80;99.90;;;;;;5035155;28;20615;-88
2022/11/26 01:37:55;;;;;;;79.13;14.02;;;6.80;99.90;;;;;;5015056;28;20178;-88
2022/11/26 01:41:02;;;;;;;91.05;14.90;;;6.80;99.90;;;;;;5035692;28;20531;-88
2022/11/26 01:44:37;;;;;;;82.10;14.15;;;6.70;99.90;;;;;;5035821;28;20188;-89
2022/11/26 01:47:15;;;;;;;;;;;;;;;;;;;;;
2022/11/26 01:50:42;;;;;;;79.68;15.85;;;6.60;99.90;;;;;;5036132;28;20199;-89
2022/11/26 01:53:44;;;;;;;;;;;;;;;;;;;;;
2022/11/26 01:56:39;;;;;;;82.65;13.73;;;6.50;99.90;;;;;;5036639;28;20141;-89
2022/11/26 02:00:06;;;;;;;;;;;;;;;;;;;;;
2022/11/26 02:02:36;;;;;;;82.65;14.48;;;6.40;99.90;;;;;;5034581;28;20199;-89
2022/11/26 02:05:28;;;;;;;77.18;14.77;;;6.30;99.90;;;;;;5033968;28;20169;-89
2022/11/26 02:08:19;;;;;;;76.88;14.23;;;6.10;99.90;;;;;;5035557;28;20219;-89
2022/11/26 02:17:09;;;;;;;79.75;13.80;;;5.90;99.90;;;;;;4975179;28;20693;-89
2022/11/26 02:20:14;;;;;;;76.47;13.40;;;5.80;99.90;;;;;;4974746;28;20253;-88
2022/11/26 02:23:23;;;;;;;94.22;14.20;;;5.80;99.90;;;;;;4974355;28;20293;-89
2022/11/26 02:26:40;;;;;;;83.05;12.40;;;5.80;99.90;;;;;;4974282;28;20179;-89
2022/11/26 02:32:10;;;;;;;78.63;16.83;;;5.70;99.90;;;;;;5099251;22;20244;-89
2022/11/26 02:35:41;;;;;;;;;;;;;;;;;;;;;
2022/11/26 02:38:43;;;;;;;75.75;13.70;;;5.50;99.90;;;;;;5035083;28;20168;-89
2022/11/26 02:41:21;;;;;;;;;;;;;;;;;;;;;
2022/11/26 02:44:09;;;;;;;77.38;16.25;;;5.40;99.90;;;;;;5035279;28;20208;-89
2022/11/26 02:46:45;;;;;;;75.63;13.10;;;5.50;99.90;;;;;;5035078;28;20643;-89
2022/11/26 02:55:49;;;;;;;78.50;16.02;;;5.40;99.90;;;;;;5003340;28;20171;-89
2022/11/26 02:58:24;;;;;;;80.50;15.07;;;5.30;99.90;;;;;;5035195;28;20169;-88
2022/11/26 03:01:06;;;;;;;80.10;15.88;;;5.20;99.90;;;;;;5033345;28;20181;-89
2022/11/26 03:03:46;;;;;;;82.18;14.40;;;5.20;99.90;;;;;;5033699;28;20207;-89
2022/11/26 03:06:22;;;;;;;78.57;15.07;;;5.20;99.90;;;;;;5034200;28;20218;-89
2022/11/26 03:08:56;;;;;;;85.43;16.55;;;5.10;99.90;;;;;;5033443;28;20631;-89
2022/11/26 03:11:47;;;;;;;76.85;15.95;;;5.10;99.90;;;;;;5034078;28;20204;-88
2022/11/26 03:14:17;;;;;;;81.18;16.42;;;5.20;99.90;;;;;;5034759;28;20154;-89
2022/11/26 03:16:52;;;;;;;85.50;16.40;;;5.10;99.90;;;;;;5033673;28;20169;-89
2022/11/26 03:19:38;;;;;;;82.82;17.27;;;5.10;99.90;;;;;;5033516;28;20161;-88
2022/11/26 03:22:07;;;;;;;77.93;16.15;;;5.10;99.90;;;;;;5033210;28;20286;-89
2022/11/26 03:24:36;;;;;;;78.63;16.13;;;5.10;99.90;;;;;;5032912;28;20204;-89
2022/11/26 03:27:20;;;;;;;79.95;15.65;;;5.00;99.90;;;;;;5033743;28;20177;-89
2022/11/26 03:30:13;;;;;;;73.78;15.10;;;5.00;99.90;;;;;;5032761;28;20193;-88
2022/11/26 03:32:54;;;;;;;80.63;15.18;;;4.90;99.90;;;;;;5015799;28;20177;-88
2022/11/26 03:35:45;;;;;;;78.43;15.48;;;4.80;99.90;;;;;;5033699;28;20196;-89
2022/11/26 03:38:19;;;;;;;86.07;16.00;;;4.90;99.90;;;;;;5032855;28;20177;-89
2022/11/26 03:41:05;;;;;;;80.47;16.50;;;4.90;99.90;;;;;;5032673;28;20220;-89
2022/11/26 03:43:37;;;;;;;77.28;15.35;;;4.90;99.90;;;;;;5033139;28;20223;-89
2022/11/26 03:46:17;;;;;;;77.75;17.35;;;4.80;99.90;;;;;;5033981;28;20149;-89
2022/11/26 03:48:49;;;;;;;80.25;18.27;;;4.80;99.90;;;;;;5032742;28;20672;-89
2022/11/26 03:51:18;;;;;;;79.53;16.17;;;4.80;99.90;;;;;;5034626;28;20274;-89
2022/11/26 03:53:54;;;;;;;;;;;;;;;;;;;;;
2022/11/26 03:56:40;;;;;;;86.45;15.02;;;4.70;99.90;;;;;;5034234;28;20147;-89
2022/11/26 04:01:49;;;;;;;82.07;14.82;;;4.60;99.90;;;;;;5050204;22;20301;-89
2022/11/26 04:04:15;;;;;;;85.90;15.35;;;4.50;99.90;;;;;;5033041;28;20196;-89
2022/11/26 04:06:58;;;;;;;75.22;16.77;;;4.70;99.90;;;;;;5032619;28;20161;-89
2022/11/26 04:09:34;;;;;;;76.68;16.08;;;4.80;99.90;;;;;;5032960;28;20256;-88
2022/11/26 04:12:02;;;;;;;80.95;16.35;;;4.60;99.90;;;;;;5032874;28;20196;-89
2022/11/26 04:14:31;;;;;;;76.38;15.07;;;4.50;99.90;;;;;;5032410;28;20230;-88
2022/11/26 04:16:59;;;;;;;76.00;17.52;;;4.40;99.90;;;;;;5032546;28;20208;-88
2022/11/26 04:19:25;;;;;;;75.40;16.27;;;4.50;99.90;;;;;;5032211;28;20196;-87
2022/11/26 04:21:51;;;;;;;73.80;16.50;;;4.40;99.90;;;;;;5032388;28;20219;-88
2022/11/26 04:24:17;;;;;;;73.37;16.60;;;4.30;99.90;;;;;;5033264;28;20166;-88
2022/11/26 04:26:42;;;;;;;77.63;16.43;;;4.30;99.90;;;;;;5032361;28;20201;-88
2022/11/26 04:29:08;;;;;;;76.30;15.63;;;4.30;99.90;;;;;;5033214;28;20168;-88
2022/11/26 04:31:34;;;;;;;81.37;15.53;;;4.20;99.90;;;;;;5031927;28;20424;-88
2022/11/26 04:34:02;;;;;;;75.20;17.33;;;4.20;99.90;;;;;;5032842;28;20171;-87
2022/11/26 04:36:28;;;;;;;75.22;17.27;;;4.20;99.90;;;;;;5031999;28;20584;-87
2022/11/26 04:38:54;;;;;;;77.77;16.87;;;4.20;99.90;;;;;;5033260;28;20192;-87
2022/11/26 04:41:19;;;;;;;73.10;16.03;;;4.10;99.90;;;;;;5033693;28;20184;-87
2022/11/26 04:43:45;;;;;;;77.67;14.90;;;4.10;99.90;;;;;;5033281;28;20200;-87
2022/11/26 04:46:11;;;;;;;76.00;16.70;;;4.10;99.90;;;;;;5033225;28;20408;-88
2022/11/26 04:48:39;;;;;;;75.40;15.20;;;4.00;99.90;;;;;;5033476;28;20161;-88
2022/11/26 04:51:11;;;;;;;79.55;16.73;;;4.20;99.90;;;;;;5031798;28;20181;-88
2022/11/26 04:53:36;;;;;;;82.90;17.05;;;4.20;99.90;;;;;;5032112;28;20177;-87
2022/11/26 04:56:02;;;;;;;71.57;14.70;;;4.10;99.90;;;;;;5033328;28;20248;-87
2022/11/26 04:58:31;;;;;;;78.60;15.80;;;4.10;99.90;;;;;;5033364;28;20654;-87
2022/11/26 05:00:57;;;;;;;79.43;14.40;;;4.00;99.90;;;;;;5033214;28;20279;-87
2022/11/26 05:03:25;;;;;;;76.20;14.73;;;4.00;99.90;;;;;;5033634;28;20185;-87
2022/11/26 05:05:54;;;;;;;88.47;16.98;;;4.00;99.90;;;;;;5036631;28;20165;-88
2022/11/26 05:08:20;;;;;;;82.72;15.55;;;4.10;99.90;;;;;;5035726;28;20204;-88
2022/11/26 05:10:46;;;;;;;77.53;14.17;;;4.00;99.90;;;;;;5037040;28;20221;-87
2022/11/26 05:13:16;;;;;;;74.27;17.07;;;4.00;99.90;;;;;;5037064;28;20212;-87
2022/11/26 05:15:48;;;;;;;75.43;15.25;;;3.90;99.90;;;;;;5037276;28;20157;-88
2022/11/26 05:18:14;;;;;;;73.22;14.10;;;3.90;99.90;;;;;;5035647;28;20176;-88
2022/11/26 05:20:45;;;;;;;76.77;16.70;;;3.90;99.90;;;;;;5035687;28;20279;-87
2022/11/26 05:23:10;;;;;;;76.28;17.55;;;3.80;99.90;;;;;;5037871;28;20434;-87
2022/11/26 05:25:36;;;;;;;72.10;14.30;;;3.80;99.90;;;;;;5037097;28;20165;-87
2022/11/26 05:28:05;;;;;;;74.43;15.63;;;3.80;99.90;;;;;;5035463;28;20205;-88
2022/11/26 05:30:30;;;;;;;75.05;15.55;;;3.80;99.90;;;;;;5035215;28;20185;-87
2022/11/26 05:32:59;;;;;;;71.73;13.40;;;3.80;99.90;;;;;;5036448;28;20165;-87
2022/11/26 05:35:28;;;;;;;75.82;14.85;;;3.80;99.90;;;;;;5035492;28;20176;-87
2022/11/26 05:38:00;;;;;;;76.75;17.55;;;3.80;99.90;;;;;;5036567;28;20706;-87
2022/11/26 05:40:26;;;;;;;78.57;19.80;;;3.80;99.90;;;;;;5035135;28;20283;-87
2022/11/26 05:42:51;;;;;;;77.60;16.00;;;3.80;99.90;;;;;;5035417;28;20295;-87
2022/11/26 05:45:17;;;;;;;75.50;16.00;;;3.80;99.90;;;;;;5035287;28;20702;-87
2022/11/26 05:47:43;;;;;;;76.03;14.90;;;3.70;99.90;;;;;;5105991;22;20543;-86
2022/11/26 05:50:09;;;;;;;74.03;17.97;;;3.70;99.90;;;;;;5038584;28;20277;-86
2022/11/26 05:52:35;;;;;;;78.75;17.50;;;3.80;99.90;;;;;;5038737;28;20403;-86
2022/11/26 05:55:00;;;;;;;75.20;15.70;;;3.80;99.90;;;;;;5036891;28;20635;-86
2022/11/26 05:57:26;;;;;;;75.57;15.83;;;3.70;99.90;;;;;;5038340;28;20176;-86
2022/11/26 05:59:52;;;;;;;76.40;15.20;;;3.70;99.90;;;;;;5038232;28;20185;-86
2022/11/26 06:02:18;;;;;;;72.30;14.10;;;3.70;99.90;;;;;;5036729;28;20280;-86
2022/11/26 06:04:43;;;;;;;74.30;14.13;;;3.70;99.90;;;;;;5038845;28;20173;-86
2022/11/26 06:07:09;;;;;;;72.03;15.10;;;3.70;99.90;;;;;;5036993;28;20414;-86
2022/11/26 06:09:35;;;;;;;73.20;14.45;;;3.80;99.90;;;;;;5038127;28;20178;-86
2022/11/26 06:12:01;;;;;;;75.70;12.43;;;3.80;99.90;;;;;;5038305;28;20630;-86
2022/11/26 06:14:27;;;;;;;74.03;13.60;;;3.80;99.90;;;;;;5037605;28;20165;-86
2022/11/26 06:16:53;;;;;;;75.03;11.60;;;3.80;99.90;;;;;;5036896;28;20169;-86
2022/11/26 06:19:18;;;;;;;71.33;13.53;;;3.80;99.90;;;;;;5036252;28;20411;-86
2022/11/26 06:21:44;;;;;;;74.33;12.07;;;3.80;99.90;;;;;;5037428;28;20634;-86
2022/11/26 06:24:11;;;;;;;72.67;13.23;;;3.80;99.90;;;;;;5038137;28;20196;-86
2022/11/26 06:26:36;;;;;;;72.72;13.55;;;3.90;99.90;;;;;;5037735;28;20917;-86
2022/11/26 06:29:02;;;;;;;71.63;12.90;;;3.90;99.90;;;;;;5037582;28;20172;-86
2022/11/26 06:31:28;;;;;;;75.78;16.02;;;4.00;99.90;;;;;;5036996;28;20234;-86
2022/11/26 06:33:55;;;;;;;73.50;15.40;;;3.90;99.90;;;;;;5037486;28;20247;-86
2022/11/26 06:36:22;;;;;;;74.93;14.20;;;3.80;99.90;;;;;;5036689;28;20974;-85
2022/11/26 06:38:47;;;;;;;76.97;15.70;;;3.80;99.90;;;;;;5038068;28;20543;-86
2022/11/26 06:41:13;;;;;;;74.23;13.60;;;3.70;99.90;;;;;;5036242;28;20192;-86
2022/11/26 06:43:39;;;;;;;72.87;13.50;;;3.70;99.90;;;;;;5037745;28;20597;-86
2022/11/26 06:46:08;;;;;;;76.73;12.67;;;3.80;99.90;;;;;;5035792;28;20467;-85
2022/11/26 06:48:35;;;;;;;74.20;12.82;;;3.80;99.90;;;;;;5036535;28;20670;-86
2022/11/26 06:51:05;;;;;;;80.50;12.63;;;3.70;99.90;;;;;;5037212;28;20281;-86
2022/11/26 06:53:31;;;;;;;73.43;11.45;;;3.70;99.90;;;;;;5036348;28;20642;-86
2022/11/26 06:56:03;;;;;;;74.28;11.05;;;3.60;99.90;;;;;;5037273;28;20593;-86
2022/11/26 06:58:30;;;;;;;71.90;13.00;;;3.60;99.90;;;;;;5037685;28;20185;-86
2022/11/26 07:00:55;;;;;;;72.35;13.13;;;3.60;99.90;;;;;;5035791;28;20227;-86
2022/11/26 07:03:23;;;;;;;71.30;11.23;;;3.60;99.90;;;;;;5036320;28;20597;-86
2022/11/26 07:05:48;;;;;;;69.05;10.48;;;3.60;99.90;;;;;;5036972;28;20211;-86
2022/11/26 07:08:14;;;;;;;71.77;9.70;;;3.50;99.90;;;;;;5036922;28;20157;-86
2022/11/26 07:10:40;;;;;;;70.67;11.90;;;3.40;99.90;;;;;;5036871;28;20546;-86
2022/11/26 07:13:05;;;;;;;69.70;10.23;;;3.50;99.90;;;;;;5036387;28;20177;-85
2022/11/26 07:15:31;;;;;;;69.67;10.57;;;3.40;99.90;;;;;;5036867;28;20169;-86
2022/11/26 07:17:58;;;;;;;76.60;14.70;;;3.50;99.90;;;;;;5035624;28;20227;-85
2022/11/26 07:20:24;;;;;;;74.50;13.40;;;3.60;99.90;;;;;;5036909;28;20432;-85
2022/11/26 07:22:51;;;;;;;72.97;13.68;;;3.60;99.90;;;;;;5038419;28;20199;-86
2022/11/26 07:25:17;;;;;;;76.03;14.70;;;3.70;99.90;;;;;;5041170;28;20197;-86
2022/11/26 07:27:44;;;;;;;75.80;14.23;;;3.70;99.90;;;;;;5038514;28;20172;-86
2022/11/26 07:30:11;;;;;;;73.40;13.75;;;3.80;99.90;;;;;;5039653;28;20412;-85
2022/11/26 07:32:37;;;;;;;75.95;12.40;;;3.80;99.90;;;;;;5037802;28;20260;-86
2022/11/26 07:35:03;;;;;;;74.13;12.63;;;3.90;99.90;;;;;;5037834;28;20532;-86
2022/11/26 07:37:30;;;;;;;76.72;12.05;;;3.90;99.90;;;;;;5039703;28;20173;-85
2022/11/26 07:39:56;;;;;;;73.20;12.48;;;4.00;99.90;;;;;;5039773;28;20189;-86
2022/11/26 07:42:22;;;;;;;76.60;12.77;;;4.00;99.90;;;;;;5037639;28;20193;-86
2022/11/26 07:44:47;;;;;;;75.83;12.67;;;4.10;99.90;;;;;;5038341;28;20256;-86
2022/11/26 07:47:13;;;;;;;73.40;12.37;;;4.10;99.90;;;;;;5038149;28;20165;-86
2022/11/26 07:49:39;;;;;;;74.27;12.53;;;4.20;99.90;;;;;;5038364;28;20636;-86
2022/11/26 07:52:05;;;;;;;71.00;11.37;;;4.20;99.90;;;;;;5039278;28;20445;-86
2022/11/26 07:54:31;;;;;;;77.53;11.70;;;4.20;99.90;;;;;;5038529;28;20408;-86
2022/11/26 07:56:56;;;;;;;73.20;11.67;;;4.30;99.90;;;;;;5038638;28;20176;-86
2022/11/26 07:59:25;;;;;;;75.73;13.37;;;4.40;99.90;;;;;;5038798;28;20173;-86
2022/11/26 08:01:50;;;;;;;74.28;13.77;;;4.50;99.90;;;;;;5038545;28;20192;-86
2022/11/26 08:04:16;;;;;;;77.40;12.43;;;4.60;99.90;;;;;;5038759;28;20162;-86
2022/11/26 08:06:42;;;;;;;75.60;14.77;;;4.60;99.90;;;;;;5039883;28;20165;-86
2022/11/26 08:09:09;;;;;;;74.43;15.33;;;4.60;99.90;;;;;;5042010;28;20187;-86
2022/11/26 08:11:34;;;;;;;77.57;15.70;;;4.70;99.90;;;;;;5043061;28;20177;-86
2022/11/26 08:14:10;;;;;;;74.07;15.27;;;4.70;99.90;;;;;;5042058;28;20176;-86
2022/11/26 08:16:36;;;;;;;77.47;15.48;;;4.70;99.90;;;;;;5042650;28;20172;-86
2022/11/26 08:19:05;;;;;;;74.87;15.87;;;4.80;99.90;;;;;;5044631;28;20161;-86
2022/11/26 08:21:31;;;;;;;74.78;14.95;;;4.80;99.90;;;;;;5043333;28;20458;-86
2022/11/26 08:23:56;;;;;;;78.87;14.10;;;4.90;99.90;;;;;;5043955;28;20200;-87
2022/11/26 08:26:24;;;;;;;77.27;16.10;;;4.90;99.90;;;;;;5044785;28;20467;-87
2022/11/26 08:28:50;;;;;;;81.80;17.05;;;4.90;99.90;;;;;;5044915;28;20169;-87
2022/11/26 08:31:17;;;;;;;79.78;15.27;;;4.90;99.90;;;;;;5044623;28;20181;-87
2022/11/26 08:33:43;;;;;;;79.43;15.95;;;5.00;99.90;;;;;;5046887;28;20224;-86
2022/11/26 08:36:10;;;;;;;73.38;14.30;;;5.00;99.90;;;;;;5045999;28;20169;-87
2022/11/26 08:38:36;;;;;;;80.10;15.15;;;5.00;99.90;;;;;;5043475;28;20200;-87
2022/11/26 08:41:05;;;;;;;79.35;15.10;;;5.00;99.90;;;;;;5043609;28;20188;-87
2022/11/26 08:43:33;;;;;;;76.60;16.38;;;5.20;99.90;;;;;;5044045;28;20208;-87
2022/11/26 08:45:59;;;;;;;73.35;16.35;;;5.20;99.90;;;;;;5043995;28;20165;-87
2022/11/26 08:48:27;;;;;;;76.03;17.55;;;5.20;99.90;;;;;;5044373;28;20235;-87
2022/11/26 08:51:01;;;;;;;78.97;17.75;;;5.20;99.90;;;;;;5045399;28;20188;-87
2022/11/26 08:53:28;;;;;;;78.82;16.77;;;5.30;99.90;;;;;;5042738;28;20175;-87
2022/11/26 08:55:59;;;;;;;76.75;17.45;;;5.30;99.90;;;;;;5044003;28;20272;-87
2022/11/26 08:58:25;;;;;;;78.40;17.10;;;5.40;99.90;;;;;;5043378;28;20272;-87
2022/11/26 09:00:51;;;;;;;81.78;15.70;;;5.40;99.90;;;;;;5043406;28;20188;-87
2022/11/26 09:03:17;;;;;;;82.20;16.60;;;5.50;99.90;;;;;;5047338;28;20189;-87
2022/11/26 09:05:42;;;;;;;80.70;14.93;;;5.50;99.90;;;;;;5043329;28;20164;-87
2022/11/26 09:08:08;;;;;;;76.70;13.73;;;5.50;99.90;;;;;;5041709;28;20161;-87
2022/11/26 09:10:34;;;;;;;82.00;14.97;;;5.60;99.90;;;;;;5042021;28;20654;-87
2022/11/26 09:13:00;;;;;;;93.40;14.23;;;5.70;99.90;;;;;;5042019;28;20207;-87
2022/11/26 09:15:25;;;;;;;79.00;14.30;;;5.80;99.90;;;;;;5041402;28;20173;-87
2022/11/26 09:17:51;;;;;;;78.80;14.63;;;5.90;99.90;;;;;;5041971;28;20256;-87
2022/11/26 09:20:17;;;;;;;75.90;14.40;;;5.90;99.90;;;;;;5042876;28;20184;-87
2022/11/26 09:22:43;;;;;;;76.87;15.60;;;6.00;99.90;;;;;;5043087;28;20601;-87
2022/11/26 09:25:09;;;;;;;77.97;14.50;;;6.00;99.90;;;;;;5043174;28;20256;-87
2022/11/26 09:27:34;;;;;;;77.68;14.73;;;6.00;99.90;;;;;;5043390;28;20169;-87
2022/11/26 09:30:01;;;;;;;78.07;13.50;;;6.10;99.90;;;;;;5040631;28;20327;-86
2022/11/26 09:32:27;;;;;;;80.10;14.25;;;6.10;99.90;;;;;;5042217;28;20168;-86
2022/11/26 09:34:53;;;;;;;75.63;13.05;;;6.20;99.90;;;;;;5043112;28;20169;-86
2022/11/26 09:37:18;;;;;;;80.27;15.30;;;6.20;99.90;;;;;;5042468;28;20166;-87
2022/11/26 09:39:44;;;;;;;88.73;13.80;;;6.30;99.90;;;;;;5042693;28;20181;-86
2022/11/26 09:42:20;;;;;;;80.33;13.30;;;6.30;99.90;;;;;;5023990;28;20200;-86
2022/11/26 09:45:09;;;;;;;76.65;16.25;;;6.40;99.90;;;;;;5040411;28;20153;-86
2022/11/26 09:47:41;;;;;;;87.28;14.90;;;6.50;99.90;;;;;;5040171;28;20184;-86
2022/11/26 09:50:09;;;;;;;81.82;14.05;;;6.60;99.90;;;;;;5040079;28;20232;-87
2022/11/26 09:52:57;;;;;;;77.15;14.40;;;6.70;99.90;;;;;;5044015;28;20173;-86
2022/11/26 09:55:30;;;;;;;79.95;17.05;;;6.70;99.90;;;;;;5044379;28;20150;-86
2022/11/26 09:58:11;;;;;;;77.18;14.23;;;6.80;99.90;;;;;;5043264;28;20154;-86
2022/11/26 10:00:40;;;;;;;84.60;16.70;;;6.90;99.90;;;;;;5044234;28;20213;-86
2022/11/26 10:03:14;;;;;;;81.35;14.43;;;7.00;99.90;;;;;;5044120;28;20220;-86
2022/11/26 10:05:56;;;;;;;75.72;16.13;;;7.10;99.90;;;;;;5044682;28;20164;-86
2022/11/26 10:08:36;;;;;;;75.78;15.57;;;7.10;99.90;;;;;;5043223;28;20189;-86
2022/11/26 10:11:14;;;;;;;77.72;15.35;;;7.20;99.90;;;;;;5043756;28;20185;-86
2022/11/26 10:14:04;;;;;;;78.72;16.10;;;7.30;99.90;;;;;;5043851;28;20175;-86
2022/11/26 10:17:26;;;;;;;81.07;17.33;;;7.40;99.90;;;;;;5043816;28;20232;-86
2022/11/26 10:19:57;;;;;;;78.22;14.35;;;7.40;99.90;;;;;;5018775;28;20204;-86
2022/11/26 10:22:29;;;;;;;79.60;17.08;;;7.50;99.90;;;;;;5043735;28;20276;-86
2022/11/26 10:24:57;;;;;;;74.80;17.08;;;7.50;99.90;;;;;;5042731;28;20152;-86
2022/11/26 10:27:27;;;;;;;77.22;16.80;;;7.50;99.90;;;;;;5043118;28;20172;-86
2022/11/26 10:30:07;;;;;;;75.50;15.18;;;7.50;99.90;;;;;;5042869;28;20291;-86
2022/11/26 10:32:39;;;;;;;77.63;15.52;;;7.60;99.90;;;;;;5042632;28;20154;-86
2022/11/26 10:35:05;;;;;;;78.97;13.57;;;7.70;99.90;;;;;;5042618;28;20149;-86
2022/11/26 10:37:31;;;;;;;72.57;13.68;;;7.70;99.90;;;;;;5042180;28;20638;-86
2022/11/26 10:40:12;;;;;;;73.97;14.67;;;7.80;99.90;;;;;;5040887;28;20243;-86
2022/11/26 10:42:41;;;;;;;74.50;12.50;;;7.90;99.90;;;;;;5041589;28;20205;-86
2022/11/26 10:45:19;;;;;;;75.30;15.48;;;8.00;99.90;;;;;;5042204;28;20166;-86
2022/11/26 10:47:45;;;;;;;78.47;16.35;;;8.00;99.90;;;;;;5040553;28;20188;-86
2022/11/26 10:50:11;;;;;;;79.10;17.50;;;8.10;99.90;;;;;;5041804;28;20193;-86
2022/11/26 10:52:38;;;;;;;74.07;13.33;;;8.10;99.90;;;;;;5041440;28;20623;-86
2022/11/26 10:55:27;;;;;;;81.15;15.63;;;8.30;99.90;;;;;;5040496;28;20416;-86
2022/11/26 10:58:23;;;;;;;76.35;10.50;;;8.40;99.90;;;;;;5040181;28;20176;-86
2022/11/26 11:00:48;;;;;;;79.00;14.52;;;8.40;99.90;;;;;;5040549;28;20201;-86
2022/11/26 11:03:24;;;;;;;74.13;10.30;;;8.50;99.90;;;;;;5040451;28;20666;-86
2022/11/26 11:05:49;;;;;;;73.10;11.55;;;8.50;99.90;;;;;;5040482;28;20614;-86
2022/11/26 11:08:31;;;;;;;75.10;10.20;;;8.50;99.90;;;;;;5039684;28;20215;-86
2022/11/26 11:10:59;;;;;;;82.78;12.02;;;8.60;99.90;;;;;;5039092;28;20436;-86
2022/11/26 11:13:43;;;;;;;71.53;10.25;;;8.70;99.90;;;;;;5038701;28;20174;-86
2022/11/26 11:16:11;;;;;;;77.80;8.85;;;8.80;99.90;;;;;;5039814;28;20193;-86
2022/11/26 11:18:46;;;;;;;72.80;10.10;;;8.80;99.90;;;;;;5037749;28;20165;-86
2022/11/26 11:21:16;;;;;;;70.90;9.25;;;9.00;99.90;;;;;;5039894;28;20176;-86
2022/11/26 11:23:41;;;;;;;74.10;9.20;;;9.00;99.90;;;;;;5040295;28;20264;-86
2022/11/26 11:26:15;;;;;;;77.50;10.80;;;9.10;99.90;;;;;;5039465;28;20201;-86
2022/11/26 11:28:52;;;;;;;69.57;8.60;;;9.00;99.90;;;;;;5039135;28;20145;-86
2022/11/26 11:31:21;;;;;;;70.18;7.20;;;9.10;99.90;;;;;;5037736;28;20185;-86
2022/11/26 11:33:48;;;;;;;72.18;8.98;;;9.10;99.90;;;;;;5039233;28;20169;-86
2022/11/26 11:36:19;;;;;;;71.88;9.65;;;9.10;99.90;;;;;;5038825;28;20188;-86
2022/11/26 11:38:50;;;;;;;76.72;8.50;;;9.10;99.90;;;;;;5039356;28;20157;-86
2022/11/26 11:41:45;;;;;;;74.18;7.18;;;9.20;99.90;;;;;;5037705;28;20189;-86
2022/11/26 11:44:22;;;;;;;75.00;7.68;;;9.30;99.90;;;;;;5033607;28;20299;-86
2022/11/26 11:46:57;;;;;;;73.70;6.78;;;9.40;99.90;;;;;;5038112;28;20646;-86
2022/11/26 11:50:06;;;;;;;70.05;6.68;;;9.40;99.90;;;;;;5138065;22;20292;-88
2022/11/26 12:03:06;;;;;;;74.85;6.32;;;9.50;99.90;;;;;;5086227;22;20229;-87
2022/11/26 12:06:42;;;;;;;;;;;;;;;;;;;;;
2022/11/26 12:20:01;;;;;;;78.55;8.07;;;9.60;99.90;;;;;;5407917;22;20228;-88
2022/11/26 12:23:28;;;;;;;74.47;6.60;;;9.70;99.90;;;;;;5031988;28;20200;-87
2022/11/26 12:26:49;;;;;;;;;;;;;;;;;;;;;
2022/11/26 12:33:11;;;;;;;;;;;;;;;;;;;;;
2022/11/26 12:36:34;;;;;;;;;;;;;;;;;;;;;
2022/11/26 12:39:17;;;;;;;69.07;6.55;;;9.70;99.90;;;;;;5022130;28;20188;-87
2022/11/26 12:41:54;;;;;;;72.03;6.55;;;9.70;99.90;;;;;;5032305;28;20291;-87
2022/11/26 12:44:39;;;;;;;73.10;7.50;;;9.70;99.90;;;;;;5032654;28;20176;-87
2022/11/26 12:47:46;;;;;;;68.65;6.72;;;9.70;99.90;;;;;;5033060;28;20169;-87
2022/11/26 12:56:39;;;;;;;75.43;7.35;;;9.70;99.90;;;;;;5044576;28;20176;-87
2022/11/26 12:59:44;;;;;;;72.45;7.40;;;9.70;99.90;;;;;;5052820;28;20168;-87
2022/11/26 13:02:50;;;;;;;72.22;6.90;;;9.70;99.90;;;;;;5032505;28;20239;-87
2022/11/26 13:05:47;;;;;;;;;;;;;;;;;;;;;
2022/11/26 13:08:53;;;;;;;73.25;7.70;;;9.60;99.90;;;;;;5032548;28;20704;-87
2022/11/26 13:11:58;;;;;;;;;;;;;;;;;;;;;
2022/11/26 13:19:06;;;;;;;74.57;7.05;;;9.60;99.90;;;;;;5016436;28;20177;-87
2022/11/26 13:22:20;;;;;;;;;;;;;;;;;;;;;
2022/11/26 13:25:08;;;;;;;73.38;7.22;;;9.60;99.90;;;;;;5034254;28;20177;-87
2022/11/26 13:27:55;;;;;;;70.00;7.10;;;9.60;99.90;;;;;;5036831;28;20162;-87
2022/11/26 13:30:50;;;;;;;78.13;7.70;;;9.60;99.90;;;;;;5036939;28;20192;-87
2022/11/26 13:33:44;;;;;;;;;;;;;;;;;;;;;
2022/11/26 13:36:37;;;;;;;75.78;8.35;;;9.60;99.90;;;;;;5036670;28;20169;-87
2022/11/26 13:39:27;;;;;;;70.00;7.20;;;9.60;99.90;;;;;;5036617;28;20158;-87
2022/11/26 13:42:30;;;;;;;69.50;6.47;;;9.60;99.90;;;;;;5036471;28;20153;-87
2022/11/26 13:45:03;;;;;;;69.93;7.22;;;9.60;99.90;;;;;;5035133;28;20176;-87
2022/11/26 13:47:49;;;;;;;73.68;7.30;;;9.60;99.90;;;;;;5035166;28;20160;-86
2022/11/26 13:50:50;;;;;;;68.65;6.32;;;9.50;99.90;;;;;;5035456;28;20186;-87
2022/11/26 13:54:11;;;;;;;72.20;6.90;;;9.50;99.90;;;;;;5035824;28;20168;-87
2022/11/26 13:57:34;;;;;;;69.75;7.20;;;9.50;99.90;;;;;;5035452;28;20599;-87
2022/11/26 14:00:31;;;;;;;;;;;;;;;;;;;;;
2022/11/26 14:03:09;;;;;;;73.78;5.97;;;9.60;99.90;;;;;;5036277;28;20192;-87
2022/11/26 14:06:27;;;;;;;;;;;;;;;;;;;;;
2022/11/26 14:09:40;;;;;;;77.47;7.95;;;9.60;99.90;;;;;;5035699;28;20162;-87
2022/11/26 14:12:13;;;;;;;71.18;7.10;;;9.60;99.90;;;;;;5015794;28;20220;-87
2022/11/26 14:20:01;;;;;;;70.10;7.63;;;9.50;99.90;;;;;;3280350;22;20609;-87
2022/11/26 14:28:02;;;;;;;71.38;7.13;;;9.30;99.90;;;;;;4718597;26;20242;-87
2022/11/26 14:30:57;;;;;;;70.90;7.10;;;9.20;99.90;;;;;;5054657;28;20187;-87
2022/11/26 14:33:45;;;;;;;70.93;7.07;;;9.20;99.90;;;;;;5055660;28;20664;-89
2022/11/26 14:36:33;;;;;;;71.65;7.40;;;9.10;99.90;;;;;;5053659;28;20204;-89
2022/11/26 14:39:25;;;;;;;70.18;7.75;;;9.10;99.90;;;;;;5054462;28;20255;-87
2022/11/26 14:42:34;;;;;;;;;;;;;;;;;;;;;
2022/11/26 14:45:13;;;;;;;68.88;6.90;;;8.90;99.90;;;;;;5034867;28;20189;-87
2022/11/26 14:48:11;;;;;;;69.68;7.20;;;9.00;99.90;;;;;;5055268;28;20229;-87
2022/11/26 14:51:15;;;;;;;70.65;8.27;;;8.90;99.90;;;;;;5050760;28;20197;-87
2022/11/26 14:54:16;;;;;;;70.88;8.60;;;8.80;99.90;;;;;;5054988;28;20259;-87
2022/11/26 14:57:27;;;;;;;76.85;9.30;;;8.80;99.90;;;;;;5039851;28;20183;-87
2022/11/26 15:00:18;;;;;;;71.28;6.93;;;8.70;99.90;;;;;;5054577;28;20661;-87
2022/11/26 15:03:20;;;;;;;71.03;6.97;;;8.70;99.90;;;;;;5053643;28;20195;-87